Flight Track Log - Related Links

Times and Time Zones

All times are in EDT time to prevent confusion due to time zone crossing. See the N11LS flight status page for this flight to view local times or setup timezone preferences in your user account.

Time Position Orientation Groundspeed Altitude Reporting Facility
EDT Latitude Longitude Course Direction KTS MPH feet Rate Location/Type
Wed 05:25:33 PM 41.6167 -73.1333 56° Northeast 132 152 5,500  Level New York TRACON
Wed 05:26:33 PM 41.6333 -73.1000 56° Northeast 130 150 5,500  Level New York TRACON
Wed 05:27:57 PM 41.6775 -73.0600 34° Northeast 131 151 5,500  Level Boston Center
Wed 05:28:34 PM 41.6944 -73.0433 36° Northeast 131 151 5,500  Level Boston Center
Wed 05:29:53 PM 41.7342 -73.0019 38° Northeast 133 153 5,500  Level Boston Center
Wed 05:30:35 PM 41.7531 -72.9772 44° Northeast 133 153 5,500  Level Boston Center
Wed 05:31:36 PM 41.7825 -72.9439 40° Northeast 134 154 5,500  Level Boston Center
Wed 05:32:31 PM 41.8097 -72.9164 37° Northeast 135 155 5,500  Level Boston Center
Wed 05:33:44 PM 41.8431 -72.8747 43° Northeast 135 155 5,500  Level Boston Center
Wed 05:34:45 PM 41.8744 -72.8444 36° Northeast 135 155 5,500  Level Boston Center
Wed 05:35:39 PM 41.8997 -72.8139 42° Northeast 134 154 5,500  Level Boston Center
Wed 05:36:40 PM 41.9289 -72.7806 40° Northeast 135 155 5,500  Level Boston Center
Wed 05:37:47 PM 41.9603 -72.7444 41° Northeast 136 157 5,500  Level Boston Center
Wed 05:38:42 PM 41.9875 -72.7139 40° Northeast 137 158 5,500  Level Boston Center
Wed 05:39:43 PM 42.0147 -72.6803 43° Northeast 140 161 5,500  Level Boston Center
Wed 05:40:44 PM 42.0439 -72.6469 40° Northeast 136 157 5,500  Level Boston Center
Wed 05:41:44 PM 42.0753 -72.6136 38° Northeast 138 159 5,500  Level Boston Center
Wed 05:42:51 PM 42.1064 -72.5744 43° Northeast 138 159 5,500  Level Boston Center
Wed 05:43:46 PM 42.1336 -72.5464 37° Northeast 133 153 5,500  Level Boston Center
Wed 05:45:05 PM 42.1711 -72.5017 41° Northeast 138 159 5,500  Level Boston Center
Wed 05:46:06 PM 42.2025 -72.4708 36° Northeast 140 161 5,500  Level Boston Center
Wed 05:47:06 PM 42.2294 -72.4372 43° Northeast 136 157 5,500  Level Boston Center
Wed 05:47:49 PM 42.2503 -72.4150 38° Northeast 132 152 5,500  Level Boston Center
Wed 05:48:50 PM 42.2794 -72.3811 41° Northeast 137 158 5,500  Level Boston Center
Wed 05:49:44 PM 42.3044 -72.3531 40° Northeast 137 158 5,500  Level Boston Center
Wed 05:50:54 PM 42.3419 -72.3108 40° Northeast 144 166 5,500  Level Boston Center
Wed 05:51:54 PM 42.3711 -72.2800 38° Northeast 138 159 5,500  Level Boston Center
Wed 05:52:54 PM 42.4003 -72.2433 43° Northeast 133 153 5,500  Level Boston Center
Wed 05:53:54 PM 42.4294 -72.2094 41° Northeast 133 153 5,500  Level Boston Center
Wed 05:54:54 PM 42.4564 -72.1756 43° Northeast 133 153 5,500  Level Boston Center
Wed 05:55:54 PM 42.4856 -72.1444 38° Northeast 133 153 5,500  Level Boston Center
Wed 05:56:54 PM 42.5144 -72.1106 41° Northeast 133 153 5,500  Level Boston Center
Wed 05:57:54 PM 42.5436 -72.0794 38° Northeast 133 153 5,500  Level Boston Center
Wed 05:58:54 PM 42.5728 -72.0453 41° Northeast 133 153 5,500 -50 Level Boston Center
Wed 05:59:54 PM 42.5975 -72.0142 43° Northeast 133 153 5,400  Descending Boston Center
Wed 06:00:54 PM 42.6286 -71.9803 39° Northeast 133 153 5,500 50 Climbing Boston Center
Wed 06:01:54 PM 42.6536 -71.9489 43° Northeast 133 153 5,500  Level Boston Center
Wed 06:03:00 PM 42.6707 -71.8997 65° Northeast  Level FlightAware Approximate
Wed 06:10:00 PM 42.8651 -71.6762 39° Northeast  Level Estimated
Wed 06:11:00 PM 42.8900 -71.6401 47° Northeast  Level FlightAware Approximate
Wed 06:12:00 PM 42.9150 -71.6040 47° Northeast  Level FlightAware Approximate
Wed 06:13:00 PM 42.9399 -71.5679 47° Northeast  Level FlightAware Approximate
Wed 06:14:00 PM 42.9648 -71.5318 47° Northeast  Level FlightAware Approximate
Wed 06:15:00 PM 42.9897 -71.4956 47° Northeast  Level FlightAware Approximate
Wed 06:16:00 PM 43.0145 -71.4593 47° Northeast  Level FlightAware Approximate
Wed 06:17:00 PM 43.0394 -71.4231 47° Northeast  Level FlightAware Approximate
Wed 06:18:00 PM 43.0689 -71.3808 40° Northeast  Level FlightAware Approximate
Wed 06:19:00 PM 43.0969 -71.3490 40° Northeast  Level FlightAware Approximate
Wed 06:20:00 PM 43.1249 -71.3172 40° Northeast  Level FlightAware Approximate
Wed 06:21:00 PM 43.1528 -71.2854 40° Northeast  Level FlightAware Approximate
Wed 06:22:00 PM 43.1808 -71.2536 40° Northeast  Level FlightAware Approximate
Wed 06:23:00 PM 43.2087 -71.2217 40° Northeast  Level FlightAware Approximate
Wed 06:24:00 PM 43.2367 -71.1898 40° Northeast  Level FlightAware Approximate
Wed 06:25:00 PM 43.2646 -71.1579 40° Northeast  Level FlightAware Approximate
Wed 06:26:00 PM 43.2925 -71.1259 40° Northeast  Level FlightAware Approximate
Wed 06:27:00 PM 43.3204 -71.0939 40° Northeast  Level FlightAware Approximate
Wed 06:28:00 PM 43.3483 -71.0619 40° Northeast  Level FlightAware Approximate
Wed 06:29:00 PM 43.3762 -71.0299 40° Northeast  Level FlightAware Approximate
Wed 06:30:00 PM 43.4041 -70.9978 40° Northeast  Level FlightAware Approximate
Wed 06:31:00 PM 43.4319 -70.9656 40° Northeast  Level FlightAware Approximate
Wed 06:32:00 PM 43.4596 -70.9332 40° Northeast  Level FlightAware Approximate
Wed 06:33:00 PM 43.4874 -70.9008 40° Northeast  Level FlightAware Approximate
Wed 06:34:00 PM 43.5151 -70.8684 40° Northeast  Level FlightAware Approximate
Wed 06:35:00 PM 43.5428 -70.8360 40° Northeast  Level FlightAware Approximate
Wed 06:36:00 PM 43.5705 -70.8035 40° Northeast  Level FlightAware Approximate
Wed 06:37:00 PM 43.5982 -70.7710 40° Northeast  Level FlightAware Approximate
Wed 06:38:00 PM 43.6259 -70.7385 40° Northeast  Level FlightAware Approximate
Wed 06:39:00 PM 43.6535 -70.7059 40° Northeast  Level FlightAware Approximate
Wed 06:40:00 PM 43.6812 -70.6733 40° Northeast  Level FlightAware Approximate
Wed 06:41:00 PM 43.7088 -70.6407 40° Northeast  Level FlightAware Approximate
Wed 06:42:00 PM 43.7365 -70.6081 40° Northeast  Level FlightAware Approximate
Wed 06:43:00 PM 43.7641 -70.5754 40° Northeast  Level FlightAware Approximate
Wed 06:44:00 PM 43.7917 -70.5427 41° Northeast  Level FlightAware Approximate
Wed 06:45:00 PM 43.8193 -70.5099 41° Northeast  Level FlightAware Approximate
Wed 06:46:00 PM 43.8469 -70.4772 41° Northeast  Level FlightAware Approximate
Wed 06:47:00 PM 43.8745 -70.4444 41° Northeast  Level FlightAware Approximate
Wed 06:48:00 PM 43.9021 -70.4115 41° Northeast  Level FlightAware Approximate
Wed 06:49:00 PM 43.9297 -70.3787 41° Northeast  Level FlightAware Approximate
Wed 06:50:00 PM 43.9573 -70.3458 41° Northeast  Level FlightAware Approximate
Wed 06:51:00 PM 43.9848 -70.3129 41° Northeast  Level FlightAware Approximate
Wed 06:52:00 PM 44.0124 -70.2799 41° Northeast  Level FlightAware Approximate
Wed 06:53:00 PM 44.0399 -70.2469 41° Northeast  Level FlightAware Approximate
Wed 06:54:00 PM 44.0675 -70.2139 41° Northeast  Level FlightAware Approximate
Wed 06:55:00 PM 44.0950 -70.1809 41° Northeast  Level FlightAware Approximate
Wed 06:56:00 PM 44.1225 -70.1478 41° Northeast  Level FlightAware Approximate
Wed 06:57:00 PM 44.1500 -70.1147 41° Northeast  Level FlightAware Approximate
Wed 06:58:00 PM 44.1775 -70.0815 41° Northeast  Level FlightAware Approximate
Wed 06:59:00 PM 44.2050 -70.0484 41° Northeast  Level FlightAware Approximate
Wed 07:00:00 PM 44.2324 -70.0152 41° Northeast  Level FlightAware Approximate
Wed 07:01:00 PM 44.2599 -69.9819 41° Northeast  Level FlightAware Approximate
Wed 07:02:00 PM 44.2873 -69.9487 41° Northeast  Level FlightAware Approximate
Wed 07:03:00 PM 44.3159 -69.9174 36° Northeast  Level FlightAware Approximate
Wed 07:04:00 PM 44.3445 -69.8861 42° Northeast  Level FlightAware Approximate
Wed 07:05:00 PM 44.3716 -69.8522 42° Northeast  Level FlightAware Approximate
Wed 07:06:00 PM 44.3987 -69.8184 42° Northeast  Level FlightAware Approximate
Wed 07:07:00 PM 44.4281 -69.7886 35° Northeast  Level FlightAware Approximate
Wed 07:08:00 PM 44.4577 -69.7590 36° Northeast  Level FlightAware Approximate
Wed 07:09:00 PM 44.4861 -69.7278 55° Northeast  Level FlightAware Approximate
Wed 07:10:00 PM 44.5070 -69.6861 55° Northeast  Level FlightAware Approximate
Wed 07:11:00 PM 44.5167 -69.6667 55° Northeast  Level FlightAware Approximate
Wed 07:12:00 PM 44.5332 -69.6755 55° Northeast  Level Estimated
Wed 07:13:00 PM 44.5332 -69.6755 55° Northeast  Level Estimated
Wed 07:14:00 PM 44.5332 -69.6755 55° Northeast  Level Estimated
Wed 07:15:00 PM 44.5332 -69.6755 55° Northeast  Level Estimated
Wed 07:16:00 PM 44.5332 -69.6755 55° Northeast  Level Estimated
Wed 07:17:00 PM 44.5332 -69.6755 55° Northeast  Level Estimated
Wed 07:18:00 PM 44.5332 -69.6755 55° Northeast  Level Estimated
Wed 07:19:00 PM 44.5332 -69.6755 55° Northeast  Level Estimated
Wed 07:20:00 PM 44.5332 -69.6755 55° Northeast  Level Estimated
Wed 07:21:00 PM 44.5332 -69.6755 55° Northeast  Level Estimated
Wed 07:22:00 PM 44.5332 -69.6755 55° Northeast  Level Estimated
Wed 07:23:00 PM 44.5332 -69.6755 55° Northeast  Level Estimated
Wed 07:24:00 PM 44.5332 -69.6755 55° Northeast  Level Estimated
Wed 07:25:00 PM 44.5332 -69.6755 55° Northeast  Level Estimated
Wed 07:26:00 PM 44.5332 -69.6755 55° Northeast  Level Estimated
Wed 07:27:00 PM 44.5332 -69.6755 55° Northeast  Level Estimated
Wed 07:28:00 PM 44.5332 -69.6755 55° Northeast  Level Estimated
Wed 07:29:00 PM 44.5332 -69.6755 55° Northeast  Level Estimated
Wed 07:30:00 PM 44.5332 -69.6755 55° Northeast  Level Estimated
Wed 07:31:00 PM 44.5332 -69.6755 55° Northeast  Level Estimated

Login

Don't have an account? Register now (free) for customized features, flight alerts, and more!